sensor_id;sensor_type;location;lat;lon;timestamp;temperature;humidity
2387;DHT22;49473;50.772;8.768;2023-09-30T00:01:00;14.70;99.90
2387;DHT22;49473;50.772;8.768;2023-09-30T00:03:27;14.70;99.90
2387;DHT22;49473;50.772;8.768;2023-09-30T00:05:54;14.60;99.90
2387;DHT22;49473;50.772;8.768;2023-09-30T00:08:21;14.50;99.90
2387;DHT22;49473;50.772;8.768;2023-09-30T00:10:47;14.50;99.90
2387;DHT22;49473;50.772;8.768;2023-09-30T00:13:16;14.40;99.90
2387;DHT22;49473;50.772;8.768;2023-09-30T00:15:43;14.40;99.90
2387;DHT22;49473;50.772;8.768;2023-09-30T00:18:09;14.40;99.90
2387;DHT22;49473;50.772;8.768;2023-09-30T00:20:36;14.30;99.90
2387;DHT22;49473;50.772;8.768;2023-09-30T00:23:03;14.30;99.90
2387;DHT22;49473;50.772;8.768;2023-09-30T00:25:31;14.30;99.90
2387;DHT22;49473;50.772;8.768;2023-09-30T00:27:58;14.10;99.90
2387;DHT22;49473;50.772;8.768;2023-09-30T00:30:26;14.10;99.90
2387;DHT22;49473;50.772;8.768;2023-09-30T00:32:53;14.10;99.90
2387;DHT22;49473;50.772;8.768;2023-09-30T00:35:20;14.00;99.90
2387;DHT22;49473;50.772;8.768;2023-09-30T00:37:47;14.00;99.90
2387;DHT22;49473;50.772;8.768;2023-09-30T00:40:13;13.90;99.90
2387;DHT22;49473;50.772;8.768;2023-09-30T00:42:40;13.90;99.90
2387;DHT22;49473;50.772;8.768;2023-09-30T00:45:08;13.80;99.90
2387;DHT22;49473;50.772;8.768;2023-09-30T00:47:37;13.60;99.90
2387;DHT22;49473;50.772;8.768;2023-09-30T00:50:05;13.30;99.90
2387;DHT22;49473;50.772;8.768;2023-09-30T00:52:35;13.10;99.90
2387;DHT22;49473;50.772;8.768;2023-09-30T00:55:02;13.00;99.90
2387;DHT22;49473;50.772;8.768;2023-09-30T00:57:31;13.00;99.90
2387;DHT22;49473;50.772;8.768;2023-09-30T00:59:58;13.00;99.90
2387;DHT22;49473;50.772;8.768;2023-09-30T01:02:26;12.90;99.90
2387;DHT22;49473;50.772;8.768;2023-09-30T01:04:55;12.90;99.90
2387;DHT22;49473;50.772;8.768;2023-09-30T01:07:22;12.80;99.90
2387;DHT22;49473;50.772;8.768;2023-09-30T01:09:49;12.70;99.90
2387;DHT22;49473;50.772;8.768;2023-09-30T01:12:16;12.50;99.90
2387;DHT22;49473;50.772;8.768;2023-09-30T01:14:43;12.70;99.90
2387;DHT22;49473;50.772;8.768;2023-09-30T01:17:10;12.70;99.90
2387;DHT22;49473;50.772;8.768;2023-09-30T01:19:39;12.70;99.90
2387;DHT22;49473;50.772;8.768;2023-09-30T01:22:07;12.80;99.90
2387;DHT22;49473;50.772;8.768;2023-09-30T01:24:38;12.80;99.90
2387;DHT22;49473;50.772;8.768;2023-09-30T01:27:05;12.70;99.90
2387;DHT22;49473;50.772;8.768;2023-09-30T01:29:32;12.70;99.90
2387;DHT22;49473;50.772;8.768;2023-09-30T01:31:59;12.60;99.90
2387;DHT22;49473;50.772;8.768;2023-09-30T01:34:26;12.70;99.90
2387;DHT22;49473;50.772;8.768;2023-09-30T01:36:54;12.80;99.90
2387;DHT22;49473;50.772;8.768;2023-09-30T01:39:22;12.60;99.90
2387;DHT22;49473;50.772;8.768;2023-09-30T01:41:48;12.40;99.90
2387;DHT22;49473;50.772;8.768;2023-09-30T01:44:15;12.30;99.90
2387;DHT22;49473;50.772;8.768;2023-09-30T01:46:42;12.20;99.90
2387;DHT22;49473;50.772;8.768;2023-09-30T01:49:09;12.20;99.90
2387;DHT22;49473;50.772;8.768;2023-09-30T01:51:35;12.10;99.90
2387;DHT22;49473;50.772;8.768;2023-09-30T01:54:03;12.10;99.90
2387;DHT22;49473;50.772;8.768;2023-09-30T01:56:31;12.10;99.90
2387;DHT22;49473;50.772;8.768;2023-09-30T01:58:59;12.10;99.90
2387;DHT22;49473;50.772;8.768;2023-09-30T02:01:26;12.20;99.90
2387;DHT22;49473;50.772;8.768;2023-09-30T02:03:52;12.20;99.90
2387;DHT22;49473;50.772;8.768;2023-09-30T02:06:19;12.10;99.90
2387;DHT22;49473;50.772;8.768;2023-09-30T02:08:47;12.10;99.90
2387;DHT22;49473;50.772;8.768;2023-09-30T02:11:14;12.00;99.90
2387;DHT22;49473;50.772;8.768;2023-09-30T02:13:44;12.10;99.90
2387;DHT22;49473;50.772;8.768;2023-09-30T02:16:14;12.10;99.90
2387;DHT22;49473;50.772;8.768;2023-09-30T02:18:43;12.00;99.90
2387;DHT22;49473;50.772;8.768;2023-09-30T02:21:11;11.90;99.90
2387;DHT22;49473;50.772;8.768;2023-09-30T02:23:37;11.90;99.90
2387;DHT22;49473;50.772;8.768;2023-09-30T02:26:04;11.90;99.90
2387;DHT22;49473;50.772;8.768;2023-09-30T02:28:31;11.70;99.90
2387;DHT22;49473;50.772;8.768;2023-09-30T02:31:01;11.60;99.90
2387;DHT22;49473;50.772;8.768;2023-09-30T02:33:27;11.60;99.90
2387;DHT22;49473;50.772;8.768;2023-09-30T02:35:54;11.60;99.90
2387;DHT22;49473;50.772;8.768;2023-09-30T02:38:21;11.60;99.90
2387;DHT22;49473;50.772;8.768;2023-09-30T02:40:49;11.50;99.90
2387;DHT22;49473;50.772;8.768;2023-09-30T02:43:17;11.50;99.90
2387;DHT22;49473;50.772;8.768;2023-09-30T02:45:44;11.60;99.90
2387;DHT22;49473;50.772;8.768;2023-09-30T02:48:12;11.70;99.90
2387;DHT22;49473;50.772;8.768;2023-09-30T02:50:41;11.70;99.90
2387;DHT22;49473;50.772;8.768;2023-09-30T02:53:09;11.60;99.90
2387;DHT22;49473;50.772;8.768;2023-09-30T02:55:36;11.40;99.90
2387;DHT22;49473;50.772;8.768;2023-09-30T02:58:03;11.40;99.90
2387;DHT22;49473;50.772;8.768;2023-09-30T03:00:30;11.40;99.90
2387;DHT22;49473;50.772;8.768;2023-09-30T03:03:00;11.40;99.90
2387;DHT22;49473;50.772;8.768;2023-09-30T03:05:29;11.50;99.90
2387;DHT22;49473;50.772;8.768;2023-09-30T03:07:59;11.60;99.90
2387;DHT22;49473;50.772;8.768;2023-09-30T03:10:26;11.60;99.90
2387;DHT22;49473;50.772;8.768;2023-09-30T03:12:53;11.50;99.90
2387;DHT22;49473;50.772;8.768;2023-09-30T03:15:20;11.30;99.90
2387;DHT22;49473;50.772;8.768;2023-09-30T03:17:47;11.30;99.90
2387;DHT22;49473;50.772;8.768;2023-09-30T03:20:14;11.40;99.90
2387;DHT22;49473;50.772;8.768;2023-09-30T03:22:47;11.30;99.90
2387;DHT22;49473;50.772;8.768;2023-09-30T03:25:15;11.20;99.90
2387;DHT22;49473;50.772;8.768;2023-09-30T03:27:43;11.00;99.90
2387;DHT22;49473;50.772;8.768;2023-09-30T03:30:12;10.90;99.90
2387;DHT22;49473;50.772;8.768;2023-09-30T03:32:39;10.80;99.90
2387;DHT22;49473;50.772;8.768;2023-09-30T03:35:07;10.70;99.90
2387;DHT22;49473;50.772;8.768;2023-09-30T03:37:36;10.60;99.90
2387;DHT22;49473;50.772;8.768;2023-09-30T03:40:05;10.60;99.90
2387;DHT22;49473;50.772;8.768;2023-09-30T03:42:39;10.60;99.90
2387;DHT22;49473;50.772;8.768;2023-09-30T03:45:08;10.70;99.90
2387;DHT22;49473;50.772;8.768;2023-09-30T03:47:35;10.70;99.90
2387;DHT22;49473;50.772;8.768;2023-09-30T03:50:02;10.60;99.90
2387;DHT22;49473;50.772;8.768;2023-09-30T03:52:29;10.60;99.90
2387;DHT22;49473;50.772;8.768;2023-09-30T03:54:58;10.50;99.90
2387;DHT22;49473;50.772;8.768;2023-09-30T03:57:26;10.40;99.90
2387;DHT22;49473;50.772;8.768;2023-09-30T03:59:54;10.30;99.90
2387;DHT22;49473;50.772;8.768;2023-09-30T04:02:20;10.20;99.90
2387;DHT22;49473;50.772;8.768;2023-09-30T04:04:47;10.10;99.90
2387;DHT22;49473;50.772;8.768;2023-09-30T04:07:16;10.10;99.90
2387;DHT22;49473;50.772;8.768;2023-09-30T04:09:43;10.10;99.90
2387;DHT22;49473;50.772;8.768;2023-09-30T04:12:10;10.10;99.90
2387;DHT22;49473;50.772;8.768;2023-09-30T04:14:38;10.00;99.90
2387;DHT22;49473;50.772;8.768;2023-09-30T04:17:05;10.00;99.90
2387;DHT22;49473;50.772;8.768;2023-09-30T04:19:32;10.00;99.90
2387;DHT22;49473;50.772;8.768;2023-09-30T04:21:58;10.10;99.90
2387;DHT22;49473;50.772;8.768;2023-09-30T04:24:25;10.10;99.90
2387;DHT22;49473;50.772;8.768;2023-09-30T04:26:54;10.00;99.90
2387;DHT22;49473;50.772;8.768;2023-09-30T04:29:23;9.90;99.90
2387;DHT22;49473;50.772;8.768;2023-09-30T04:31:51;9.80;99.90
2387;DHT22;49473;50.772;8.768;2023-09-30T04:34:18;9.90;99.90
2387;DHT22;49473;50.772;8.768;2023-09-30T04:36:45;9.90;99.90
2387;DHT22;49473;50.772;8.768;2023-09-30T04:39:11;10.00;99.90
2387;DHT22;49473;50.772;8.768;2023-09-30T04:41:40;9.80;99.90
2387;DHT22;49473;50.772;8.768;2023-09-30T04:44:07;9.80;99.90
2387;DHT22;49473;50.772;8.768;2023-09-30T04:46:36;9.70;99.90
2387;DHT22;49473;50.772;8.768;2023-09-30T04:49:07;9.70;99.90
2387;DHT22;49473;50.772;8.768;2023-09-30T04:51:34;9.70;99.90
2387;DHT22;49473;50.772;8.768;2023-09-30T04:54:01;9.70;99.90
2387;DHT22;49473;50.772;8.768;2023-09-30T04:56:29;9.50;99.90
2387;DHT22;49473;50.772;8.768;2023-09-30T05:01:24;9.30;99.90
2387;DHT22;49473;50.772;8.768;2023-09-30T05:03:51;9.30;99.90
2387;DHT22;49473;50.772;8.768;2023-09-30T05:06:20;9.20;99.90
2387;DHT22;49473;50.772;8.768;2023-09-30T05:08:47;9.20;99.90
2387;DHT22;49473;50.772;8.768;2023-09-30T05:11:14;9.30;99.90
2387;DHT22;49473;50.772;8.768;2023-09-30T05:13:41;9.30;99.90
2387;DHT22;49473;50.772;8.768;2023-09-30T05:16:07;9.20;99.90
2387;DHT22;49473;50.772;8.768;2023-09-30T05:18:34;9.30;99.90
2387;DHT22;49473;50.772;8.768;2023-09-30T05:21:02;9.30;99.90
2387;DHT22;49473;50.772;8.768;2023-09-30T05:23:30;9.30;99.90
2387;DHT22;49473;50.772;8.768;2023-09-30T05:25:58;9.20;99.90
2387;DHT22;49473;50.772;8.768;2023-09-30T05:28:24;9.10;99.90
2387;DHT22;49473;50.772;8.768;2023-09-30T05:30:52;9.00;99.90
2387;DHT22;49473;50.772;8.768;2023-09-30T05:33:19;8.90;99.90
2387;DHT22;49473;50.772;8.768;2023-09-30T05:35:46;8.90;99.90
2387;DHT22;49473;50.772;8.768;2023-09-30T05:38:13;9.00;99.90
2387;DHT22;49473;50.772;8.768;2023-09-30T05:40:42;9.00;99.90
2387;DHT22;49473;50.772;8.768;2023-09-30T05:43:09;8.90;99.90
2387;DHT22;49473;50.772;8.768;2023-09-30T05:45:39;8.90;99.90
2387;DHT22;49473;50.772;8.768;2023-09-30T05:48:14;9.00;99.90
2387;DHT22;49473;50.772;8.768;2023-09-30T05:50:42;9.10;99.90
2387;DHT22;49473;50.772;8.768;2023-09-30T05:53:09;9.20;99.90
2387;DHT22;49473;50.772;8.768;2023-09-30T05:55:37;9.20;99.90
2387;DHT22;49473;50.772;8.768;2023-09-30T05:58:05;9.00;99.90
2387;DHT22;49473;50.772;8.768;2023-09-30T06:00:32;9.10;99.90
2387;DHT22;49473;50.772;8.768;2023-09-30T06:03:01;9.10;99.90
2387;DHT22;49473;50.772;8.768;2023-09-30T06:05:29;9.10;99.90
2387;DHT22;49473;50.772;8.768;2023-09-30T06:07:57;9.10;99.90
2387;DHT22;49473;50.772;8.768;2023-09-30T06:10:24;9.10;99.90
2387;DHT22;49473;50.772;8.768;2023-09-30T06:12:52;9.20;99.90
2387;DHT22;49473;50.772;8.768;2023-09-30T06:15:21;9.40;99.90
2387;DHT22;49473;50.772;8.768;2023-09-30T06:17:51;9.60;99.90
2387;DHT22;49473;50.772;8.768;2023-09-30T06:20:18;9.90;99.90
2387;DHT22;49473;50.772;8.768;2023-09-30T06:22:48;9.90;99.90
2387;DHT22;49473;50.772;8.768;2023-09-30T06:25:16;9.90;99.90
2387;DHT22;49473;50.772;8.768;2023-09-30T06:27:43;10.10;99.90
2387;DHT22;49473;50.772;8.768;2023-09-30T06:30:10;10.30;99.90
2387;DHT22;49473;50.772;8.768;2023-09-30T06:32:40;10.80;99.90
2387;DHT22;49473;50.772;8.768;2023-09-30T06:35:08;11.90;99.90
2387;DHT22;49473;50.772;8.768;2023-09-30T06:37:36;12.60;99.90
2387;DHT22;49473;50.772;8.768;2023-09-30T06:40:03;12.90;99.90
2387;DHT22;49473;50.772;8.768;2023-09-30T06:42:30;12.90;99.90
2387;DHT22;49473;50.772;8.768;2023-09-30T06:44:57;13.20;99.90
2387;DHT22;49473;50.772;8.768;2023-09-30T06:47:24;13.50;99.90
2387;DHT22;49473;50.772;8.768;2023-09-30T06:49:52;13.90;99.90
2387;DHT22;49473;50.772;8.768;2023-09-30T06:52:19;14.40;99.90
2387;DHT22;49473;50.772;8.768;2023-09-30T06:54:46;14.90;99.90
2387;DHT22;49473;50.772;8.768;2023-09-30T06:57:14;15.50;99.90
2387;DHT22;49473;50.772;8.768;2023-09-30T06:59:40;16.70;99.90
2387;DHT22;49473;50.772;8.768;2023-09-30T07:02:07;17.70;99.90
2387;DHT22;49473;50.772;8.768;2023-09-30T07:04:34;18.40;99.90
2387;DHT22;49473;50.772;8.768;2023-09-30T07:07:02;18.90;99.90
2387;DHT22;49473;50.772;8.768;2023-09-30T07:09:29;19.50;99.90
2387;DHT22;49473;50.772;8.768;2023-09-30T07:11:56;19.70;99.90
2387;DHT22;49473;50.772;8.768;2023-09-30T07:14:23;19.10;99.90
2387;DHT22;49473;50.772;8.768;2023-09-30T07:16:50;18.00;99.90
2387;DHT22;49473;50.772;8.768;2023-09-30T07:19:17;17.30;99.90
2387;DHT22;49473;50.772;8.768;2023-09-30T07:21:43;17.00;99.90
2387;DHT22;49473;50.772;8.768;2023-09-30T07:24:13;16.50;99.90
2387;DHT22;49473;50.772;8.768;2023-09-30T07:26:40;16.10;99.90
2387;DHT22;49473;50.772;8.768;2023-09-30T07:29:07;15.90;99.90
2387;DHT22;49473;50.772;8.768;2023-09-30T07:31:35;15.50;99.90
2387;DHT22;49473;50.772;8.768;2023-09-30T07:34:02;15.40;99.90
2387;DHT22;49473;50.772;8.768;2023-09-30T07:36:29;15.20;99.90
2387;DHT22;49473;50.772;8.768;2023-09-30T07:38:56;15.10;99.90
2387;DHT22;49473;50.772;8.768;2023-09-30T07:41:24;15.00;99.90
2387;DHT22;49473;50.772;8.768;2023-09-30T07:43:50;14.70;99.90
2387;DHT22;49473;50.772;8.768;2023-09-30T07:46:17;14.70;99.90
2387;DHT22;49473;50.772;8.768;2023-09-30T07:48:44;14.80;99.90
2387;DHT22;49473;50.772;8.768;2023-09-30T07:51:10;14.70;99.90
2387;DHT22;49473;50.772;8.768;2023-09-30T07:53:39;14.50;99.90
2387;DHT22;49473;50.772;8.768;2023-09-30T07:56:06;14.60;99.90
2387;DHT22;49473;50.772;8.768;2023-09-30T07:58:35;14.90;99.90
2387;DHT22;49473;50.772;8.768;2023-09-30T08:01:01;15.10;99.90
2387;DHT22;49473;50.772;8.768;2023-09-30T08:03:29;15.10;99.90
2387;DHT22;49473;50.772;8.768;2023-09-30T08:05:56;15.00;99.90
2387;DHT22;49473;50.772;8.768;2023-09-30T08:08:23;14.80;99.90
2387;DHT22;49473;50.772;8.768;2023-09-30T08:10:50;14.50;99.90
2387;DHT22;49473;50.772;8.768;2023-09-30T08:13:21;14.50;99.90
2387;DHT22;49473;50.772;8.768;2023-09-30T08:15:49;14.30;99.90
2387;DHT22;49473;50.772;8.768;2023-09-30T08:18:16;14.20;99.90
2387;DHT22;49473;50.772;8.768;2023-09-30T08:20:43;14.30;99.90
2387;DHT22;49473;50.772;8.768;2023-09-30T08:23:09;14.60;99.90
2387;DHT22;49473;50.772;8.768;2023-09-30T08:25:37;14.80;99.90
2387;DHT22;49473;50.772;8.768;2023-09-30T08:28:04;15.10;99.90
2387;DHT22;49473;50.772;8.768;2023-09-30T08:30:33;15.40;99.90
2387;DHT22;49473;50.772;8.768;2023-09-30T08:33:01;16.50;99.90
2387;DHT22;49473;50.772;8.768;2023-09-30T08:35:29;18.20;99.90
2387;DHT22;49473;50.772;8.768;2023-09-30T08:37:55;20.40;99.90
2387;DHT22;49473;50.772;8.768;2023-09-30T08:40:23;22.40;99.90
2387;DHT22;49473;50.772;8.768;2023-09-30T08:42:52;24.70;99.90
2387;DHT22;49473;50.772;8.768;2023-09-30T08:45:19;25.50;99.90
2387;DHT22;49473;50.772;8.768;2023-09-30T08:47:46;26.20;99.90
2387;DHT22;49473;50.772;8.768;2023-09-30T08:50:15;26.10;99.90
2387;DHT22;49473;50.772;8.768;2023-09-30T08:52:44;26.50;99.90
2387;DHT22;49473;50.772;8.768;2023-09-30T08:55:11;28.20;99.90
2387;DHT22;49473;50.772;8.768;2023-09-30T08:57:39;29.30;99.70
2387;DHT22;49473;50.772;8.768;2023-09-30T09:00:07;30.10;95.20
2387;DHT22;49473;50.772;8.768;2023-09-30T09:02:37;28.30;91.80
2387;DHT22;49473;50.772;8.768;2023-09-30T09:05:04;28.60;94.00
2387;DHT22;49473;50.772;8.768;2023-09-30T09:07:33;30.20;92.30
2387;DHT22;49473;50.772;8.768;2023-09-30T09:10:04;30.80;87.50
2387;DHT22;49473;50.772;8.768;2023-09-30T09:12:33;30.50;83.70
2387;DHT22;49473;50.772;8.768;2023-09-30T09:15:01;31.00;80.50
2387;DHT22;49473;50.772;8.768;2023-09-30T09:20:09;32.50;76.60
2387;DHT22;49473;50.772;8.768;2023-09-30T09:22:41;30.70;74.90
2387;DHT22;49473;50.772;8.768;2023-09-30T09:25:08;30.40;76.90
2387;DHT22;49473;50.772;8.768;2023-09-30T09:27:35;30.20;79.60
2387;DHT22;49473;50.772;8.768;2023-09-30T09:30:15;30.30;79.30
2387;DHT22;49473;50.772;8.768;2023-09-30T09:32:53;31.10;77.60
2387;DHT22;49473;50.772;8.768;2023-09-30T09:35:20;31.60;74.80
2387;DHT22;49473;50.772;8.768;2023-09-30T09:37:56;32.90;74.90
2387;DHT22;49473;50.772;8.768;2023-09-30T09:40:24;34.10;72.80
2387;DHT22;49473;50.772;8.768;2023-09-30T09:42:51;33.80;69.50
2387;DHT22;49473;50.772;8.768;2023-09-30T09:45:21;32.40;69.40
2387;DHT22;49473;50.772;8.768;2023-09-30T09:47:49;31.50;68.40
2387;DHT22;49473;50.772;8.768;2023-09-30T09:50:17;30.80;68.70
2387;DHT22;49473;50.772;8.768;2023-09-30T09:52:45;30.10;71.80
2387;DHT22;49473;50.772;8.768;2023-09-30T09:55:16;26.40;76.20
2387;DHT22;49473;50.772;8.768;2023-09-30T09:57:43;26.20;78.70
2387;DHT22;49473;50.772;8.768;2023-09-30T10:00:12;26.10;80.50
2387;DHT22;49473;50.772;8.768;2023-09-30T10:02:40;26.40;82.80
2387;DHT22;49473;50.772;8.768;2023-09-30T10:05:07;28.20;80.20
2387;DHT22;49473;50.772;8.768;2023-09-30T10:07:38;30.10;75.30
2387;DHT22;49473;50.772;8.768;2023-09-30T10:10:11;31.70;75.00
2387;DHT22;49473;50.772;8.768;2023-09-30T10:12:40;33.00;70.10
2387;DHT22;49473;50.772;8.768;2023-09-30T10:15:39;33.50;67.90
2387;DHT22;49473;50.772;8.768;2023-09-30T10:18:09;33.70;66.60
2387;DHT22;49473;50.772;8.768;2023-09-30T10:20:38;33.00;67.90
2387;DHT22;49473;50.772;8.768;2023-09-30T10:23:19;33.90;66.00
2387;DHT22;49473;50.772;8.768;2023-09-30T10:25:47;33.00;66.00
2387;DHT22;49473;50.772;8.768;2023-09-30T10:28:35;33.20;67.70
2387;DHT22;49473;50.772;8.768;2023-09-30T10:31:10;33.00;66.60
2387;DHT22;49473;50.772;8.768;2023-09-30T10:36:43;34.60;64.40
2387;DHT22;49473;50.772;8.768;2023-09-30T10:39:11;35.70;63.30
2387;DHT22;49473;50.772;8.768;2023-09-30T10:41:54;36.40;60.00
2387;DHT22;49473;50.772;8.768;2023-09-30T10:44:35;37.10;59.30
2387;DHT22;49473;50.772;8.768;2023-09-30T10:47:34;38.30;57.10
2387;DHT22;49473;50.772;8.768;2023-09-30T10:50:01;37.20;54.10
2387;DHT22;49473;50.772;8.768;2023-09-30T10:52:30;37.30;56.70
2387;DHT22;49473;50.772;8.768;2023-09-30T10:55:02;38.60;55.70
2387;DHT22;49473;50.772;8.768;2023-09-30T10:57:29;37.50;54.60
2387;DHT22;49473;50.772;8.768;2023-09-30T11:00:11;36.50;55.10
2387;DHT22;49473;50.772;8.768;2023-09-30T11:02:57;33.30;55.50
2387;DHT22;49473;50.772;8.768;2023-09-30T11:05:24;32.30;59.40
2387;DHT22;49473;50.772;8.768;2023-09-30T11:07:52;32.90;57.90
2387;DHT22;49473;50.772;8.768;2023-09-30T11:10:20;33.30;57.90
2387;DHT22;49473;50.772;8.768;2023-09-30T11:12:55;35.00;58.20
2387;DHT22;49473;50.772;8.768;2023-09-30T11:15:23;35.30;55.50
2387;DHT22;49473;50.772;8.768;2023-09-30T11:17:51;34.20;55.40
2387;DHT22;49473;50.772;8.768;2023-09-30T11:20:18;33.60;57.10
2387;DHT22;49473;50.772;8.768;2023-09-30T11:22:47;35.00;56.50
2387;DHT22;49473;50.772;8.768;2023-09-30T11:25:17;36.80;57.00
2387;DHT22;49473;50.772;8.768;2023-09-30T11:27:45;37.60;54.90
2387;DHT22;49473;50.772;8.768;2023-09-30T11:30:13;38.10;53.80
2387;DHT22;49473;50.772;8.768;2023-09-30T11:32:41;38.20;52.20
2387;DHT22;49473;50.772;8.768;2023-09-30T11:35:09;37.00;52.10
2387;DHT22;49473;50.772;8.768;2023-09-30T11:37:36;36.10;53.90
2387;DHT22;49473;50.772;8.768;2023-09-30T11:40:11;36.90;53.30
2387;DHT22;49473;50.772;8.768;2023-09-30T11:42:39;36.40;53.30
2387;DHT22;49473;50.772;8.768;2023-09-30T11:45:19;36.90;54.00
2387;DHT22;49473;50.772;8.768;2023-09-30T11:47:47;37.50;51.30
2387;DHT22;49473;50.772;8.768;2023-09-30T11:50:14;37.80;51.20
2387;DHT22;49473;50.772;8.768;2023-09-30T11:52:44;38.00;52.00
2387;DHT22;49473;50.772;8.768;2023-09-30T11:55:12;38.10;50.10
2387;DHT22;49473;50.772;8.768;2023-09-30T11:57:39;39.00;50.40
2387;DHT22;49473;50.772;8.768;2023-09-30T12:00:07;37.90;49.50
2387;DHT22;49473;50.772;8.768;2023-09-30T12:02:39;36.40;50.50
2387;DHT22;49473;50.772;8.768;2023-09-30T12:05:08;36.70;50.70
2387;DHT22;49473;50.772;8.768;2023-09-30T12:07:37;36.60;50.80
2387;DHT22;49473;50.772;8.768;2023-09-30T12:10:07;35.90;50.70
2387;DHT22;49473;50.772;8.768;2023-09-30T12:12:34;36.90;52.30
2387;DHT22;49473;50.772;8.768;2023-09-30T12:15:00;38.00;51.00
2387;DHT22;49473;50.772;8.768;2023-09-30T12:17:28;37.60;49.70
2387;DHT22;49473;50.772;8.768;2023-09-30T12:19:54;38.30;50.80
2387;DHT22;49473;50.772;8.768;2023-09-30T12:22:22;37.60;49.50
2387;DHT22;49473;50.772;8.768;2023-09-30T12:24:49;37.00;50.60
2387;DHT22;49473;50.772;8.768;2023-09-30T12:27:17;37.00;50.90
2387;DHT22;49473;50.772;8.768;2023-09-30T12:29:44;37.60;50.60
2387;DHT22;49473;50.772;8.768;2023-09-30T12:32:11;38.10;51.00
2387;DHT22;49473;50.772;8.768;2023-09-30T12:34:38;38.30;50.50
2387;DHT22;49473;50.772;8.768;2023-09-30T12:37:06;38.40;48.60
2387;DHT22;49473;50.772;8.768;2023-09-30T12:39:34;38.70;49.30
2387;DHT22;49473;50.772;8.768;2023-09-30T12:42:02;38.00;48.70
2387;DHT22;49473;50.772;8.768;2023-09-30T12:44:34;37.50;49.60
2387;DHT22;49473;50.772;8.768;2023-09-30T12:47:00;37.80;49.10
2387;DHT22;49473;50.772;8.768;2023-09-30T12:49:28;37.60;48.90
2387;DHT22;49473;50.772;8.768;2023-09-30T12:51:55;36.00;48.70
2387;DHT22;49473;50.772;8.768;2023-09-30T12:54:22;35.20;49.50
2387;DHT22;49473;50.772;8.768;2023-09-30T12:56:50;35.70;51.40
2387;DHT22;49473;50.772;8.768;2023-09-30T12:59:17;35.80;51.50
2387;DHT22;49473;50.772;8.768;2023-09-30T13:01:45;36.00;50.30
2387;DHT22;49473;50.772;8.768;2023-09-30T13:04:13;34.90;49.70
2387;DHT22;49473;50.772;8.768;2023-09-30T13:06:40;33.90;51.30
2387;DHT22;49473;50.772;8.768;2023-09-30T13:09:06;32.70;52.30
2387;DHT22;49473;50.772;8.768;2023-09-30T13:11:34;31.90;54.40
2387;DHT22;49473;50.772;8.768;2023-09-30T13:14:02;31.00;55.00
2387;DHT22;49473;50.772;8.768;2023-09-30T13:16:29;29.00;56.90
2387;DHT22;49473;50.772;8.768;2023-09-30T13:18:56;28.10;60.00
2387;DHT22;49473;50.772;8.768;2023-09-30T13:21:23;27.40;62.40
2387;DHT22;49473;50.772;8.768;2023-09-30T13:23:50;26.80;65.60
2387;DHT22;49473;50.772;8.768;2023-09-30T13:26:17;25.90;65.00
2387;DHT22;49473;50.772;8.768;2023-09-30T13:28:44;25.30;66.60
2387;DHT22;49473;50.772;8.768;2023-09-30T13:31:13;24.90;66.50
2387;DHT22;49473;50.772;8.768;2023-09-30T13:33:39;24.30;68.50
2387;DHT22;49473;50.772;8.768;2023-09-30T13:36:06;24.20;67.90
2387;DHT22;49473;50.772;8.768;2023-09-30T13:38:33;24.30;69.50
2387;DHT22;49473;50.772;8.768;2023-09-30T13:41:00;24.30;70.30
2387;DHT22;49473;50.772;8.768;2023-09-30T13:43:27;24.10;69.10
2387;DHT22;49473;50.772;8.768;2023-09-30T13:45:53;23.80;69.80
2387;DHT22;49473;50.772;8.768;2023-09-30T13:48:21;23.60;70.10
2387;DHT22;49473;50.772;8.768;2023-09-30T13:50:48;23.50;70.50
2387;DHT22;49473;50.772;8.768;2023-09-30T13:53:15;23.10;70.40
2387;DHT22;49473;50.772;8.768;2023-09-30T13:55:42;22.90;71.10
2387;DHT22;49473;50.772;8.768;2023-09-30T13:58:08;22.50;72.00
2387;DHT22;49473;50.772;8.768;2023-09-30T14:00:35;22.50;74.10
2387;DHT22;49473;50.772;8.768;2023-09-30T14:03:02;22.50;74.20
2387;DHT22;49473;50.772;8.768;2023-09-30T14:05:32;22.50;73.60
2387;DHT22;49473;50.772;8.768;2023-09-30T14:07:58;22.40;77.30
2387;DHT22;49473;50.772;8.768;2023-09-30T14:10:25;21.90;75.40
2387;DHT22;49473;50.772;8.768;2023-09-30T14:12:54;21.50;79.90
2387;DHT22;49473;50.772;8.768;2023-09-30T14:15:21;21.50;80.20
2387;DHT22;49473;50.772;8.768;2023-09-30T14:17:48;21.70;84.20
2387;DHT22;49473;50.772;8.768;2023-09-30T14:20:15;21.60;80.90
2387;DHT22;49473;50.772;8.768;2023-09-30T14:22:43;21.60;81.00
2387;DHT22;49473;50.772;8.768;2023-09-30T14:25:09;21.60;84.80
2387;DHT22;49473;50.772;8.768;2023-09-30T14:27:36;21.50;81.70
2387;DHT22;49473;50.772;8.768;2023-09-30T14:30:03;21.50;81.90
2387;DHT22;49473;50.772;8.768;2023-09-30T14:32:30;21.50;82.10
2387;DHT22;49473;50.772;8.768;2023-09-30T14:34:57;21.30;83.60
2387;DHT22;49473;50.772;8.768;2023-09-30T14:37:24;21.10;82.40
2387;DHT22;49473;50.772;8.768;2023-09-30T14:39:52;21.00;81.60
2387;DHT22;49473;50.772;8.768;2023-09-30T14:42:19;20.70;83.80
2387;DHT22;49473;50.772;8.768;2023-09-30T14:44:46;20.70;86.60
2387;DHT22;49473;50.772;8.768;2023-09-30T14:47:12;20.50;86.70
2387;DHT22;49473;50.772;8.768;2023-09-30T14:49:40;20.40;89.30
2387;DHT22;49473;50.772;8.768;2023-09-30T14:52:07;20.20;89.10
2387;DHT22;49473;50.772;8.768;2023-09-30T14:54:35;20.40;90.40
2387;DHT22;49473;50.772;8.768;2023-09-30T14:57:03;20.40;91.00
2387;DHT22;49473;50.772;8.768;2023-09-30T14:59:32;20.30;91.30
2387;DHT22;49473;50.772;8.768;2023-09-30T15:01:59;20.10;91.80
2387;DHT22;49473;50.772;8.768;2023-09-30T15:04:26;19.90;91.80
2387;DHT22;49473;50.772;8.768;2023-09-30T15:06:53;19.90;94.00
2387;DHT22;49473;50.772;8.768;2023-09-30T15:09:22;19.90;93.00
2387;DHT22;49473;50.772;8.768;2023-09-30T15:11:49;19.80;93.50
2387;DHT22;49473;50.772;8.768;2023-09-30T15:14:17;19.80;92.60
2387;DHT22;49473;50.772;8.768;2023-09-30T15:16:44;20.00;92.00
2387;DHT22;49473;50.772;8.768;2023-09-30T15:19:11;20.30;92.80
2387;DHT22;49473;50.772;8.768;2023-09-30T15:21:38;20.40;93.60
2387;DHT22;49473;50.772;8.768;2023-09-30T15:24:06;20.60;94.20
2387;DHT22;49473;50.772;8.768;2023-09-30T15:26:34;20.90;92.60
2387;DHT22;49473;50.772;8.768;2023-09-30T15:29:01;20.80;92.70
2387;DHT22;49473;50.772;8.768;2023-09-30T15:31:30;20.60;93.10
2387;DHT22;49473;50.772;8.768;2023-09-30T15:33:57;20.40;94.80
2387;DHT22;49473;50.772;8.768;2023-09-30T15:36:24;20.10;94.30
2387;DHT22;49473;50.772;8.768;2023-09-30T15:38:51;19.90;95.10
2387;DHT22;49473;50.772;8.768;2023-09-30T15:41:22;19.60;94.90
2387;DHT22;49473;50.772;8.768;2023-09-30T15:43:50;19.50;96.00
2387;DHT22;49473;50.772;8.768;2023-09-30T15:46:17;19.20;97.60
2387;DHT22;49473;50.772;8.768;2023-09-30T15:48:45;19.10;98.10
2387;DHT22;49473;50.772;8.768;2023-09-30T15:51:12;18.90;99.90
2387;DHT22;49473;50.772;8.768;2023-09-30T15:53:39;18.50;99.90
2387;DHT22;49473;50.772;8.768;2023-09-30T15:56:05;18.10;99.90
2387;DHT22;49473;50.772;8.768;2023-09-30T15:58:32;17.90;99.90
2387;DHT22;49473;50.772;8.768;2023-09-30T16:00:59;17.70;99.90